Clifton, NJ (07015)

6:04 AM EDT on August 03, 2015 (GMT -0400)
Albion Park | | Change Station
CLOSE
Current Station
Personal Weather Station
Location: Clifton, NJ
Elevation: 215 ft
Nearby Weather Stations

Elev 215 ft 40.89 °N, 74.17 °W | Updated 4 minutes ago

Clear
Clear
73.3 °F
Feels Like 75 °F
N
0.0
Wind Variable Wind from NNW
Gusts 2.0 mph

Today
High -- | Low -- °F
--% Chance of Precip.
Yesterday
High -- | Low -- °F
Precip. -- in
5:54 AM 8:10 PM
Waning Gibbous, 88% visible
Pressure 29.83 in
Visibility 10.0 miles
Clouds Mostly Cloudy 7500 ft
Heat Index 75 °F
Dew Point 64 °F
Humidity 74%
Rainfall 0.00 in
Snow Depth Not available.
UV 0 out of 12
Pollen 7.50 out of 12
Air Quality Not available.
Flu Activity Not available.
METAR KTEB 030951Z 17004KT 10SM BKN075 22/16 A2983 RMK AO2 SLP101 T02220161

More Conditions Fewer Conditions

Pressure 29.83 in
Visibility 10.0 miles
Clouds Mostly Cloudy 7500 ft
Heat Index 75 °F
Dew Point 64 °F
Humidity 74%
Rainfall 0.00 in
Snow Depth Not available.
UV 0 out of 12
Pollen 7.50 out of 12
Air Quality Not available.
Flu Activity Not available.
METAR KTEB 030951Z 17004KT 10SM BKN075 22/16 A2983 RMK AO2 SLP101 T02220161

More Conditions Fewer Conditions

10-Day Weather Forecast

×

Almanac

Astronomy

Aug. 03, 2015 Rise Set
Actual Time
Civil Twilight
Nautical Twilight
Astronomical Twilight
Moon
Length of Visible Light
Length of Day
Tomorrow will be .
, % of the Moon is Illuminated

Today's Extremes

State Highs State Lows

Community

WunderPhotos

Upload Photos

1,843,610 photos uploaded!

WunderBlogs® & News

Nearby

Air Quality

  Air Quality AQ Index Pollutant
Not available.

Snow Depth

Station Depth Elevation

Earthquake Activity

City Distance Mag. Time & Date
Minimum magnitude displayed is 2.5.

Coastal Water Temperatures

Place Temperature

Stations

Nearby Weather Stations

Station Location Temp. Windchill Dew Point Humidity Wind Precip. Elev Updated Type